sensor_id;sensor_type;location;lat;lon;timestamp;P1;durP1;ratioP1;P2;durP2;ratioP2
8550;SDS011;4313;42.000;21.380;2022-08-20T00:00:46;9.48;;;5.25;;
8550;SDS011;4313;42.000;21.380;2022-08-20T00:03:16;9.18;;;5.28;;
8550;SDS011;4313;42.000;21.380;2022-08-20T00:05:47;8.45;;;5.72;;
8550;SDS011;4313;42.000;21.380;2022-08-20T00:08:17;7.10;;;5.45;;
8550;SDS011;4313;42.000;21.380;2022-08-20T00:10:44;6.57;;;4.80;;
8550;SDS011;4313;42.000;21.380;2022-08-20T00:13:13;6.80;;;4.55;;
8550;SDS011;4313;42.000;21.380;2022-08-20T00:15:42;7.57;;;4.80;;
8550;SDS011;4313;42.000;21.380;2022-08-20T00:18:09;8.13;;;4.75;;
8550;SDS011;4313;42.000;21.380;2022-08-20T00:20:40;7.20;;;5.05;;
8550;SDS011;4313;42.000;21.380;2022-08-20T00:23:08;8.52;;;5.80;;
8550;SDS011;4313;42.000;21.380;2022-08-20T00:25:35;10.43;;;4.97;;
8550;SDS011;4313;42.000;21.380;2022-08-20T00:28:21;8.75;;;5.10;;
8550;SDS011;4313;42.000;21.380;2022-08-20T00:30:48;10.93;;;5.18;;
8550;SDS011;4313;42.000;21.380;2022-08-20T00:33:16;9.32;;;5.30;;
8550;SDS011;4313;42.000;21.380;2022-08-20T00:35:49;7.65;;;5.47;;
8550;SDS011;4313;42.000;21.380;2022-08-20T00:38:18;9.48;;;5.57;;
8550;SDS011;4313;42.000;21.380;2022-08-20T00:40:47;10.35;;;5.30;;
8550;SDS011;4313;42.000;21.380;2022-08-20T00:43:29;11.05;;;5.47;;
8550;SDS011;4313;42.000;21.380;2022-08-20T00:46:18;8.70;;;5.22;;
8550;SDS011;4313;42.000;21.380;2022-08-20T00:48:50;7.45;;;5.18;;
8550;SDS011;4313;42.000;21.380;2022-08-20T00:51:22;8.68;;;5.93;;
8550;SDS011;4313;42.000;21.380;2022-08-20T00:53:52;8.35;;;5.10;;
8550;SDS011;4313;42.000;21.380;2022-08-20T00:56:20;7.43;;;5.05;;
8550;SDS011;4313;42.000;21.380;2022-08-20T00:58:48;9.30;;;5.20;;
8550;SDS011;4313;42.000;21.380;2022-08-20T01:01:16;7.82;;;4.72;;
8550;SDS011;4313;42.000;21.380;2022-08-20T01:03:43;8.98;;;5.70;;
8550;SDS011;4313;42.000;21.380;2022-08-20T01:06:10;9.38;;;5.72;;
8550;SDS011;4313;42.000;21.380;2022-08-20T01:08:39;8.15;;;5.07;;
8550;SDS011;4313;42.000;21.380;2022-08-20T01:11:07;6.90;;;5.30;;
8550;SDS011;4313;42.000;21.380;2022-08-20T01:13:37;8.52;;;5.18;;
8550;SDS011;4313;42.000;21.380;2022-08-20T01:16:08;7.18;;;5.30;;
8550;SDS011;4313;42.000;21.380;2022-08-20T01:18:37;12.23;;;5.93;;
8550;SDS011;4313;42.000;21.380;2022-08-20T01:21:05;7.68;;;5.18;;
8550;SDS011;4313;42.000;21.380;2022-08-20T01:23:34;8.95;;;5.40;;
8550;SDS011;4313;42.000;21.380;2022-08-20T01:26:07;7.93;;;5.05;;
8550;SDS011;4313;42.000;21.380;2022-08-20T01:28:37;8.05;;;5.13;;
8550;SDS011;4313;42.000;21.380;2022-08-20T01:31:10;7.35;;;5.22;;
8550;SDS011;4313;42.000;21.380;2022-08-20T01:33:38;12.13;;;6.00;;
8550;SDS011;4313;42.000;21.380;2022-08-20T01:36:06;8.38;;;5.32;;
8550;SDS011;4313;42.000;21.380;2022-08-20T01:38:35;9.15;;;5.95;;
8550;SDS011;4313;42.000;21.380;2022-08-20T01:41:08;8.07;;;5.30;;
8550;SDS011;4313;42.000;21.380;2022-08-20T01:43:40;6.63;;;5.20;;
8550;SDS011;4313;42.000;21.380;2022-08-20T01:46:07;9.02;;;5.45;;
8550;SDS011;4313;42.000;21.380;2022-08-20T01:48:36;7.68;;;5.30;;
8550;SDS011;4313;42.000;21.380;2022-08-20T01:51:04;8.75;;;5.22;;
8550;SDS011;4313;42.000;21.380;2022-08-20T01:53:37;10.77;;;5.60;;
8550;SDS011;4313;42.000;21.380;2022-08-20T01:56:09;7.75;;;5.38;;
8550;SDS011;4313;42.000;21.380;2022-08-20T01:58:40;9.05;;;6.07;;
8550;SDS011;4313;42.000;21.380;2022-08-20T02:01:17;7.65;;;4.80;;
8550;SDS011;4313;42.000;21.380;2022-08-20T02:03:47;8.20;;;5.82;;
8550;SDS011;4313;42.000;21.380;2022-08-20T02:06:14;7.72;;;5.65;;
8550;SDS011;4313;42.000;21.380;2022-08-20T02:08:41;8.85;;;5.65;;
8550;SDS011;4313;42.000;21.380;2022-08-20T02:11:10;9.60;;;5.47;;
8550;SDS011;4313;42.000;21.380;2022-08-20T02:13:37;7.72;;;4.65;;
8550;SDS011;4313;42.000;21.380;2022-08-20T02:16:05;7.43;;;4.82;;
8550;SDS011;4313;42.000;21.380;2022-08-20T02:18:52;10.90;;;5.45;;
8550;SDS011;4313;42.000;21.380;2022-08-20T02:21:20;7.43;;;4.97;;
8550;SDS011;4313;42.000;21.380;2022-08-20T02:23:48;7.50;;;4.80;;
8550;SDS011;4313;42.000;21.380;2022-08-20T02:26:16;9.52;;;4.93;;
8550;SDS011;4313;42.000;21.380;2022-08-20T02:28:44;8.88;;;5.03;;
8550;SDS011;4313;42.000;21.380;2022-08-20T02:31:14;8.25;;;5.57;;
8550;SDS011;4313;42.000;21.380;2022-08-20T02:33:41;8.25;;;5.20;;
8550;SDS011;4313;42.000;21.380;2022-08-20T02:36:09;8.35;;;5.40;;
8550;SDS011;4313;42.000;21.380;2022-08-20T02:38:38;9.05;;;5.55;;
8550;SDS011;4313;42.000;21.380;2022-08-20T02:41:05;8.43;;;5.72;;
8550;SDS011;4313;42.000;21.380;2022-08-20T02:43:34;9.48;;;5.32;;
8550;SDS011;4313;42.000;21.380;2022-08-20T02:46:02;8.07;;;5.28;;
8550;SDS011;4313;42.000;21.380;2022-08-20T02:48:29;8.05;;;5.32;;
8550;SDS011;4313;42.000;21.380;2022-08-20T02:50:59;7.68;;;5.15;;
8550;SDS011;4313;42.000;21.380;2022-08-20T02:53:28;12.10;;;6.20;;
8550;SDS011;4313;42.000;21.380;2022-08-20T02:55:58;9.07;;;5.25;;
8550;SDS011;4313;42.000;21.380;2022-08-20T02:58:25;6.90;;;5.15;;
8550;SDS011;4313;42.000;21.380;2022-08-20T03:00:54;8.13;;;4.95;;
8550;SDS011;4313;42.000;21.380;2022-08-20T03:03:22;9.77;;;4.93;;
8550;SDS011;4313;42.000;21.380;2022-08-20T03:05:49;10.13;;;5.15;;
8550;SDS011;4313;42.000;21.380;2022-08-20T03:08:18;9.10;;;5.47;;
8550;SDS011;4313;42.000;21.380;2022-08-20T03:10:46;6.63;;;5.13;;
8550;SDS011;4313;42.000;21.380;2022-08-20T03:13:14;7.38;;;5.55;;
8550;SDS011;4313;42.000;21.380;2022-08-20T03:15:43;8.70;;;5.07;;
8550;SDS011;4313;42.000;21.380;2022-08-20T03:18:13;10.45;;;5.38;;
8550;SDS011;4313;42.000;21.380;2022-08-20T03:20:43;8.25;;;4.63;;
8550;SDS011;4313;42.000;21.380;2022-08-20T03:23:10;9.50;;;5.28;;
8550;SDS011;4313;42.000;21.380;2022-08-20T03:25:38;6.30;;;4.97;;
8550;SDS011;4313;42.000;21.380;2022-08-20T03:28:06;9.32;;;5.43;;
8550;SDS011;4313;42.000;21.380;2022-08-20T03:30:34;8.15;;;5.43;;
8550;SDS011;4313;42.000;21.380;2022-08-20T03:33:01;7.88;;;5.28;;
8550;SDS011;4313;42.000;21.380;2022-08-20T03:35:31;7.30;;;5.20;;
8550;SDS011;4313;42.000;21.380;2022-08-20T03:37:58;8.98;;;5.35;;
8550;SDS011;4313;42.000;21.380;2022-08-20T03:40:27;8.38;;;5.47;;
8550;SDS011;4313;42.000;21.380;2022-08-20T03:42:56;9.48;;;5.40;;
8550;SDS011;4313;42.000;21.380;2022-08-20T03:45:23;9.95;;;5.40;;
8550;SDS011;4313;42.000;21.380;2022-08-20T03:47:51;8.63;;;5.47;;
8550;SDS011;4313;42.000;21.380;2022-08-20T03:50:20;6.78;;;5.25;;
8550;SDS011;4313;42.000;21.380;2022-08-20T03:52:50;7.32;;;5.28;;
8550;SDS011;4313;42.000;21.380;2022-08-20T03:55:18;9.13;;;5.47;;
8550;SDS011;4313;42.000;21.380;2022-08-20T03:57:46;11.48;;;6.63;;
8550;SDS011;4313;42.000;21.380;2022-08-20T04:00:18;32.72;;;29.33;;
8550;SDS011;4313;42.000;21.380;2022-08-20T04:02:46;34.15;;;29.27;;
8550;SDS011;4313;42.000;21.380;2022-08-20T04:05:13;22.58;;;20.05;;
8550;SDS011;4313;42.000;21.380;2022-08-20T04:07:40;16.17;;;13.80;;
8550;SDS011;4313;42.000;21.380;2022-08-20T04:10:10;9.00;;;7.60;;
8550;SDS011;4313;42.000;21.380;2022-08-20T04:12:38;14.68;;;10.93;;
8550;SDS011;4313;42.000;21.380;2022-08-20T04:15:07;40.22;;;25.67;;
8550;SDS011;4313;42.000;21.380;2022-08-20T04:17:37;52.25;;;32.53;;
8550;SDS011;4313;42.000;21.380;2022-08-20T04:20:07;55.95;;;36.05;;
8550;SDS011;4313;42.000;21.380;2022-08-20T04:22:35;29.77;;;17.67;;
8550;SDS011;4313;42.000;21.380;2022-08-20T04:25:03;30.88;;;20.02;;
8550;SDS011;4313;42.000;21.380;2022-08-20T04:27:31;86.05;;;49.83;;
8550;SDS011;4313;42.000;21.380;2022-08-20T04:29:59;26.77;;;17.90;;
8550;SDS011;4313;42.000;21.380;2022-08-20T04:32:28;19.08;;;11.23;;
8550;SDS011;4313;42.000;21.380;2022-08-20T04:34:55;14.52;;;9.50;;
8550;SDS011;4313;42.000;21.380;2022-08-20T04:37:23;15.35;;;9.93;;
8550;SDS011;4313;42.000;21.380;2022-08-20T04:39:50;10.48;;;7.30;;
8550;SDS011;4313;42.000;21.380;2022-08-20T04:42:32;9.63;;;5.95;;
8550;SDS011;4313;42.000;21.380;2022-08-20T04:45:01;13.27;;;7.10;;
8550;SDS011;4313;42.000;21.380;2022-08-20T04:47:30;9.55;;;6.13;;
8550;SDS011;4313;42.000;21.380;2022-08-20T04:49:57;9.40;;;5.90;;
8550;SDS011;4313;42.000;21.380;2022-08-20T04:52:24;12.18;;;7.28;;
8550;SDS011;4313;42.000;21.380;2022-08-20T04:54:52;10.63;;;6.70;;
8550;SDS011;4313;42.000;21.380;2022-08-20T04:57:20;10.35;;;7.47;;
8550;SDS011;4313;42.000;21.380;2022-08-20T04:59:51;10.93;;;9.30;;
8550;SDS011;4313;42.000;21.380;2022-08-20T05:02:19;16.48;;;12.20;;
8550;SDS011;4313;42.000;21.380;2022-08-20T05:04:47;19.92;;;15.15;;
8550;SDS011;4313;42.000;21.380;2022-08-20T05:07:15;19.08;;;13.00;;
8550;SDS011;4313;42.000;21.380;2022-08-20T05:09:43;18.63;;;12.98;;
8550;SDS011;4313;42.000;21.380;2022-08-20T05:12:11;13.38;;;10.98;;
8550;SDS011;4313;42.000;21.380;2022-08-20T05:14:39;15.98;;;11.10;;
8550;SDS011;4313;42.000;21.380;2022-08-20T05:17:08;16.48;;;13.50;;
8550;SDS011;4313;42.000;21.380;2022-08-20T05:19:39;20.08;;;15.52;;
8550;SDS011;4313;42.000;21.380;2022-08-20T05:22:06;19.13;;;14.90;;
8550;SDS011;4313;42.000;21.380;2022-08-20T05:24:34;20.25;;;14.77;;
8550;SDS011;4313;42.000;21.380;2022-08-20T05:27:01;19.00;;;15.45;;
8550;SDS011;4313;42.000;21.380;2022-08-20T05:29:28;23.88;;;18.20;;
8550;SDS011;4313;42.000;21.380;2022-08-20T05:31:55;26.58;;;20.55;;
8550;SDS011;4313;42.000;21.380;2022-08-20T05:34:25;28.90;;;23.08;;
8550;SDS011;4313;42.000;21.380;2022-08-20T05:36:52;26.88;;;22.13;;
8550;SDS011;4313;42.000;21.380;2022-08-20T05:39:20;25.77;;;21.15;;
8550;SDS011;4313;42.000;21.380;2022-08-20T05:41:47;26.75;;;22.20;;
8550;SDS011;4313;42.000;21.380;2022-08-20T05:44:16;28.58;;;22.90;;
8550;SDS011;4313;42.000;21.380;2022-08-20T05:46:44;28.38;;;22.73;;
8550;SDS011;4313;42.000;21.380;2022-08-20T05:49:13;27.05;;;21.83;;
8550;SDS011;4313;42.000;21.380;2022-08-20T05:51:42;27.20;;;20.60;;
8550;SDS011;4313;42.000;21.380;2022-08-20T05:54:10;25.52;;;20.90;;
8550;SDS011;4313;42.000;21.380;2022-08-20T05:56:37;22.67;;;18.73;;
8550;SDS011;4313;42.000;21.380;2022-08-20T05:59:05;24.58;;;17.85;;
8550;SDS011;4313;42.000;21.380;2022-08-20T06:01:33;22.15;;;17.50;;
8550;SDS011;4313;42.000;21.380;2022-08-20T06:04:01;20.42;;;16.80;;
8550;SDS011;4313;42.000;21.380;2022-08-20T06:06:48;19.00;;;14.05;;
8550;SDS011;4313;42.000;21.380;2022-08-20T06:09:17;15.45;;;12.00;;
8550;SDS011;4313;42.000;21.380;2022-08-20T06:11:45;14.75;;;11.40;;
8550;SDS011;4313;42.000;21.380;2022-08-20T06:14:12;15.57;;;10.75;;
8550;SDS011;4313;42.000;21.380;2022-08-20T06:16:41;11.95;;;7.95;;
8550;SDS011;4313;42.000;21.380;2022-08-20T06:19:08;9.68;;;7.47;;
8550;SDS011;4313;42.000;21.380;2022-08-20T06:21:36;10.85;;;6.82;;
8550;SDS011;4313;42.000;21.380;2022-08-20T06:24:05;10.88;;;8.30;;
8550;SDS011;4313;42.000;21.380;2022-08-20T06:26:33;16.77;;;10.65;;
8550;SDS011;4313;42.000;21.380;2022-08-20T06:29:00;15.35;;;10.88;;
8550;SDS011;4313;42.000;21.380;2022-08-20T06:31:28;14.75;;;9.25;;
8550;SDS011;4313;42.000;21.380;2022-08-20T06:33:55;13.27;;;7.60;;
8550;SDS011;4313;42.000;21.380;2022-08-20T06:36:22;9.82;;;7.55;;
8550;SDS011;4313;42.000;21.380;2022-08-20T06:38:50;12.82;;;7.85;;
8550;SDS011;4313;42.000;21.380;2022-08-20T06:41:20;12.35;;;6.93;;
8550;SDS011;4313;42.000;21.380;2022-08-20T06:43:47;10.93;;;7.50;;
8550;SDS011;4313;42.000;21.380;2022-08-20T06:46:18;11.80;;;7.15;;
8550;SDS011;4313;42.000;21.380;2022-08-20T06:48:48;11.38;;;6.78;;
8550;SDS011;4313;42.000;21.380;2022-08-20T06:51:16;10.15;;;6.85;;
8550;SDS011;4313;42.000;21.380;2022-08-20T06:53:44;8.90;;;6.70;;
8550;SDS011;4313;42.000;21.380;2022-08-20T06:56:11;12.98;;;10.30;;
8550;SDS011;4313;42.000;21.380;2022-08-20T06:58:40;8.93;;;6.57;;
8550;SDS011;4313;42.000;21.380;2022-08-20T07:01:08;12.65;;;9.55;;
8550;SDS011;4313;42.000;21.380;2022-08-20T07:03:36;8.68;;;6.10;;
8550;SDS011;4313;42.000;21.380;2022-08-20T07:06:05;9.77;;;6.30;;
8550;SDS011;4313;42.000;21.380;2022-08-20T07:08:33;7.72;;;6.10;;
8550;SDS011;4313;42.000;21.380;2022-08-20T07:11:00;9.20;;;5.97;;
8550;SDS011;4313;42.000;21.380;2022-08-20T07:13:28;6.63;;;5.50;;
8550;SDS011;4313;42.000;21.380;2022-08-20T07:16:15;8.48;;;5.60;;
8550;SDS011;4313;42.000;21.380;2022-08-20T07:18:43;9.10;;;5.63;;
8550;SDS011;4313;42.000;21.380;2022-08-20T07:21:10;9.43;;;5.88;;
8550;SDS011;4313;42.000;21.380;2022-08-20T07:23:37;8.63;;;5.70;;
8550;SDS011;4313;42.000;21.380;2022-08-20T07:26:06;6.95;;;5.38;;
8550;SDS011;4313;42.000;21.380;2022-08-20T07:28:33;6.40;;;5.63;;
8550;SDS011;4313;42.000;21.380;2022-08-20T07:31:00;9.82;;;7.35;;
8550;SDS011;4313;42.000;21.380;2022-08-20T07:33:46;10.23;;;7.90;;
8550;SDS011;4313;42.000;21.380;2022-08-20T07:36:14;9.45;;;7.97;;
8550;SDS011;4313;42.000;21.380;2022-08-20T07:38:43;11.88;;;8.63;;
8550;SDS011;4313;42.000;21.380;2022-08-20T07:41:12;12.02;;;9.10;;
8550;SDS011;4313;42.000;21.380;2022-08-20T07:43:39;15.70;;;11.07;;
8550;SDS011;4313;42.000;21.380;2022-08-20T07:46:07;14.77;;;11.02;;
8550;SDS011;4313;42.000;21.380;2022-08-20T07:48:35;14.65;;;10.65;;
8550;SDS011;4313;42.000;21.380;2022-08-20T07:51:05;15.55;;;10.10;;
8550;SDS011;4313;42.000;21.380;2022-08-20T07:53:34;11.77;;;8.55;;
8550;SDS011;4313;42.000;21.380;2022-08-20T07:56:03;12.95;;;8.77;;
8550;SDS011;4313;42.000;21.380;2022-08-20T07:58:33;12.43;;;9.65;;
8550;SDS011;4313;42.000;21.380;2022-08-20T08:01:02;13.00;;;10.15;;
8550;SDS011;4313;42.000;21.380;2022-08-20T08:03:30;14.73;;;10.05;;
8550;SDS011;4313;42.000;21.380;2022-08-20T08:05:57;12.30;;;10.05;;
8550;SDS011;4313;42.000;21.380;2022-08-20T08:08:26;15.18;;;11.75;;
8550;SDS011;4313;42.000;21.380;2022-08-20T08:10:55;11.88;;;9.85;;
8550;SDS011;4313;42.000;21.380;2022-08-20T08:13:27;13.60;;;10.63;;
8550;SDS011;4313;42.000;21.380;2022-08-20T08:15:57;11.65;;;10.38;;
8550;SDS011;4313;42.000;21.380;2022-08-20T08:18:27;12.05;;;8.98;;
8550;SDS011;4313;42.000;21.380;2022-08-20T08:20:55;12.43;;;9.18;;
8550;SDS011;4313;42.000;21.380;2022-08-20T08:23:23;12.30;;;10.43;;
8550;SDS011;4313;42.000;21.380;2022-08-20T08:25:53;13.13;;;10.15;;
8550;SDS011;4313;42.000;21.380;2022-08-20T08:28:20;11.02;;;9.57;;
8550;SDS011;4313;42.000;21.380;2022-08-20T08:30:48;12.60;;;9.70;;
8550;SDS011;4313;42.000;21.380;2022-08-20T08:33:19;11.23;;;9.45;;
8550;SDS011;4313;42.000;21.380;2022-08-20T08:35:53;10.30;;;8.50;;
8550;SDS011;4313;42.000;21.380;2022-08-20T08:38:20;9.40;;;8.05;;
8550;SDS011;4313;42.000;21.380;2022-08-20T08:40:49;8.48;;;6.75;;
8550;SDS011;4313;42.000;21.380;2022-08-20T08:43:20;7.97;;;6.00;;
8550;SDS011;4313;42.000;21.380;2022-08-20T08:45:52;9.27;;;7.07;;
8550;SDS011;4313;42.000;21.380;2022-08-20T08:48:23;8.50;;;7.03;;
8550;SDS011;4313;42.000;21.380;2022-08-20T08:50:54;8.40;;;6.10;;
8550;SDS011;4313;42.000;21.380;2022-08-20T08:53:25;9.50;;;6.15;;
8550;SDS011;4313;42.000;21.380;2022-08-20T08:55:54;9.10;;;6.35;;
8550;SDS011;4313;42.000;21.380;2022-08-20T08:58:23;7.63;;;6.07;;
8550;SDS011;4313;42.000;21.380;2022-08-20T09:00:52;8.80;;;6.97;;
8550;SDS011;4313;42.000;21.380;2022-08-20T09:03:22;8.25;;;6.72;;
8550;SDS011;4313;42.000;21.380;2022-08-20T09:05:54;8.93;;;7.05;;
8550;SDS011;4313;42.000;21.380;2022-08-20T09:08:25;9.98;;;6.80;;
8550;SDS011;4313;42.000;21.380;2022-08-20T09:10:59;10.23;;;7.15;;
8550;SDS011;4313;42.000;21.380;2022-08-20T09:13:29;8.60;;;6.63;;
8550;SDS011;4313;42.000;21.380;2022-08-20T09:15:56;7.82;;;7.03;;
8550;SDS011;4313;42.000;21.380;2022-08-20T09:18:24;8.40;;;6.72;;
8550;SDS011;4313;42.000;21.380;2022-08-20T09:20:51;10.35;;;7.15;;
8550;SDS011;4313;42.000;21.380;2022-08-20T09:23:19;9.05;;;6.50;;
8550;SDS011;4313;42.000;21.380;2022-08-20T09:25:46;10.18;;;7.18;;
8550;SDS011;4313;42.000;21.380;2022-08-20T09:28:13;7.45;;;6.43;;
8550;SDS011;4313;42.000;21.380;2022-08-20T09:30:42;9.73;;;6.80;;
8550;SDS011;4313;42.000;21.380;2022-08-20T09:33:09;10.32;;;7.30;;
8550;SDS011;4313;42.000;21.380;2022-08-20T09:35:37;7.72;;;6.20;;
8550;SDS011;4313;42.000;21.380;2022-08-20T09:38:05;10.73;;;7.20;;
8550;SDS011;4313;42.000;21.380;2022-08-20T09:40:32;7.10;;;6.32;;
8550;SDS011;4313;42.000;21.380;2022-08-20T09:42:59;7.68;;;6.38;;
8550;SDS011;4313;42.000;21.380;2022-08-20T09:45:27;8.13;;;6.93;;
8550;SDS011;4313;42.000;21.380;2022-08-20T09:47:57;8.20;;;6.78;;
8550;SDS011;4313;42.000;21.380;2022-08-20T09:50:25;7.43;;;6.70;;
8550;SDS011;4313;42.000;21.380;2022-08-20T09:53:12;7.43;;;6.68;;
8550;SDS011;4313;42.000;21.380;2022-08-20T09:55:41;8.57;;;7.05;;
8550;SDS011;4313;42.000;21.380;2022-08-20T09:58:11;11.38;;;7.32;;
8550;SDS011;4313;42.000;21.380;2022-08-20T10:00:44;10.50;;;7.15;;
8550;SDS011;4313;42.000;21.380;2022-08-20T10:03:12;8.60;;;7.55;;
8550;SDS011;4313;42.000;21.380;2022-08-20T10:05:59;7.90;;;7.05;;
8550;SDS011;4313;42.000;21.380;2022-08-20T10:08:26;10.45;;;7.47;;
8550;SDS011;4313;42.000;21.380;2022-08-20T10:10:53;8.57;;;7.72;;
8550;SDS011;4313;42.000;21.380;2022-08-20T10:13:20;10.60;;;8.10;;
8550;SDS011;4313;42.000;21.380;2022-08-20T10:15:47;10.05;;;9.05;;
8550;SDS011;4313;42.000;21.380;2022-08-20T10:18:16;8.43;;;6.57;;
8550;SDS011;4313;42.000;21.380;2022-08-20T10:20:51;7.95;;;6.68;;
8550;SDS011;4313;42.000;21.380;2022-08-20T10:23:18;8.10;;;6.22;;
8550;SDS011;4313;42.000;21.380;2022-08-20T10:25:45;8.85;;;6.90;;
8550;SDS011;4313;42.000;21.380;2022-08-20T10:28:12;7.20;;;6.50;;
8550;SDS011;4313;42.000;21.380;2022-08-20T10:30:40;8.30;;;7.10;;
8550;SDS011;4313;42.000;21.380;2022-08-20T10:33:09;7.80;;;6.78;;
8550;SDS011;4313;42.000;21.380;2022-08-20T10:35:37;8.02;;;6.90;;
8550;SDS011;4313;42.000;21.380;2022-08-20T10:38:05;7.22;;;6.53;;
8550;SDS011;4313;42.000;21.380;2022-08-20T10:40:32;7.00;;;6.30;;
8550;SDS011;4313;42.000;21.380;2022-08-20T10:42:59;6.78;;;6.18;;
8550;SDS011;4313;42.000;21.380;2022-08-20T10:45:26;8.43;;;6.88;;
8550;SDS011;4313;42.000;21.380;2022-08-20T10:47:53;7.80;;;6.10;;
8550;SDS011;4313;42.000;21.380;2022-08-20T10:50:20;6.40;;;5.80;;
8550;SDS011;4313;42.000;21.380;2022-08-20T10:52:49;6.93;;;5.95;;
8550;SDS011;4313;42.000;21.380;2022-08-20T10:55:16;8.27;;;6.15;;
8550;SDS011;4313;42.000;21.380;2022-08-20T10:57:43;8.15;;;6.95;;
8550;SDS011;4313;42.000;21.380;2022-08-20T11:00:11;6.47;;;5.88;;
8550;SDS011;4313;42.000;21.380;2022-08-20T11:02:41;6.72;;;5.65;;
8550;SDS011;4313;42.000;21.380;2022-08-20T11:05:08;8.63;;;7.00;;
8550;SDS011;4313;42.000;21.380;2022-08-20T11:07:36;7.97;;;7.15;;
8550;SDS011;4313;42.000;21.380;2022-08-20T11:10:06;6.65;;;5.95;;
8550;SDS011;4313;42.000;21.380;2022-08-20T11:12:34;6.50;;;5.90;;
8550;SDS011;4313;42.000;21.380;2022-08-20T11:15:02;8.25;;;6.05;;
8550;SDS011;4313;42.000;21.380;2022-08-20T11:17:30;7.03;;;6.32;;
8550;SDS011;4313;42.000;21.380;2022-08-20T11:19:59;8.20;;;6.32;;
8550;SDS011;4313;42.000;21.380;2022-08-20T11:22:28;6.80;;;6.10;;
8550;SDS011;4313;42.000;21.380;2022-08-20T11:24:55;6.60;;;5.38;;
8550;SDS011;4313;42.000;21.380;2022-08-20T11:27:25;8.20;;;5.55;;
8550;SDS011;4313;42.000;21.380;2022-08-20T11:29:53;8.00;;;5.90;;
8550;SDS011;4313;42.000;21.380;2022-08-20T11:32:22;8.07;;;5.63;;
8550;SDS011;4313;42.000;21.380;2022-08-20T11:34:49;6.25;;;5.65;;
8550;SDS011;4313;42.000;21.380;2022-08-20T11:37:17;6.13;;;5.53;;
8550;SDS011;4313;42.000;21.380;2022-08-20T11:39:45;7.05;;;5.55;;
8550;SDS011;4313;42.000;21.380;2022-08-20T11:42:12;8.10;;;5.65;;
8550;SDS011;4313;42.000;21.380;2022-08-20T11:44:41;7.93;;;6.05;;
8550;SDS011;4313;42.000;21.380;2022-08-20T11:47:18;7.03;;;5.32;;
8550;SDS011;4313;42.000;21.380;2022-08-20T11:49:46;5.93;;;5.15;;
8550;SDS011;4313;42.000;21.380;2022-08-20T11:52:22;7.68;;;5.55;;
8550;SDS011;4313;42.000;21.380;2022-08-20T11:54:49;7.78;;;5.30;;
8550;SDS011;4313;42.000;21.380;2022-08-20T11:57:18;6.85;;;5.65;;
8550;SDS011;4313;42.000;21.380;2022-08-20T11:59:48;7.60;;;6.07;;
8550;SDS011;4313;42.000;21.380;2022-08-20T12:02:16;7.63;;;6.00;;
8550;SDS011;4313;42.000;21.380;2022-08-20T12:04:43;7.55;;;6.00;;
8550;SDS011;4313;42.000;21.380;2022-08-20T12:07:12;6.53;;;5.53;;
8550;SDS011;4313;42.000;21.380;2022-08-20T12:09:43;6.28;;;5.68;;
8550;SDS011;4313;42.000;21.380;2022-08-20T12:12:11;8.90;;;5.95;;
8550;SDS011;4313;42.000;21.380;2022-08-20T12:14:39;7.00;;;5.80;;
8550;SDS011;4313;42.000;21.380;2022-08-20T12:17:08;6.32;;;5.65;;
8550;SDS011;4313;42.000;21.380;2022-08-20T12:19:37;6.55;;;5.95;;
8550;SDS011;4313;42.000;21.380;2022-08-20T12:22:04;7.13;;;5.78;;
8550;SDS011;4313;42.000;21.380;2022-08-20T12:24:32;7.38;;;5.57;;
8550;SDS011;4313;42.000;21.380;2022-08-20T12:27:07;7.07;;;5.43;;
8550;SDS011;4313;42.000;21.380;2022-08-20T12:29:35;6.50;;;5.90;;
8550;SDS011;4313;42.000;21.380;2022-08-20T12:32:03;6.40;;;5.38;;
8550;SDS011;4313;42.000;21.380;2022-08-20T12:34:33;6.32;;;5.72;;
8550;SDS011;4313;42.000;21.380;2022-08-20T12:37:00;8.68;;;5.43;;
8550;SDS011;4313;42.000;21.380;2022-08-20T12:39:29;6.50;;;5.82;;
8550;SDS011;4313;42.000;21.380;2022-08-20T12:42:00;5.43;;;4.93;;
8550;SDS011;4313;42.000;21.380;2022-08-20T12:44:27;8.00;;;6.63;;
8550;SDS011;4313;42.000;21.380;2022-08-20T12:47:04;7.57;;;5.63;;
8550;SDS011;4313;42.000;21.380;2022-08-20T12:49:53;9.35;;;8.30;;
8550;SDS011;4313;42.000;21.380;2022-08-20T12:52:23;8.32;;;7.53;;
8550;SDS011;4313;42.000;21.380;2022-08-20T12:54:51;8.18;;;7.38;;
8550;SDS011;4313;42.000;21.380;2022-08-20T12:57:22;7.40;;;6.13;;
8550;SDS011;4313;42.000;21.380;2022-08-20T12:59:50;6.82;;;6.13;;
8550;SDS011;4313;42.000;21.380;2022-08-20T13:02:17;8.52;;;7.53;;
8550;SDS011;4313;42.000;21.380;2022-08-20T13:04:45;9.02;;;8.23;;
8550;SDS011;4313;42.000;21.380;2022-08-20T13:07:14;8.43;;;7.22;;
8550;SDS011;4313;42.000;21.380;2022-08-20T13:09:41;8.55;;;6.85;;
8550;SDS011;4313;42.000;21.380;2022-08-20T13:12:09;6.93;;;5.97;;
8550;SDS011;4313;42.000;21.380;2022-08-20T13:14:38;6.25;;;5.65;;
8550;SDS011;4313;42.000;21.380;2022-08-20T13:17:06;7.18;;;5.82;;
8550;SDS011;4313;42.000;21.380;2022-08-20T13:19:34;8.85;;;6.57;;
8550;SDS011;4313;42.000;21.380;2022-08-20T13:22:03;7.03;;;6.00;;
8550;SDS011;4313;42.000;21.380;2022-08-20T13:24:32;6.93;;;6.30;;
8550;SDS011;4313;42.000;21.380;2022-08-20T13:27:03;7.97;;;5.80;;
8550;SDS011;4313;42.000;21.380;2022-08-20T13:29:31;5.88;;;5.38;;
8550;SDS011;4313;42.000;21.380;2022-08-20T13:31:59;6.07;;;5.40;;
8550;SDS011;4313;42.000;21.380;2022-08-20T13:34:26;6.47;;;4.78;;
8550;SDS011;4313;42.000;21.380;2022-08-20T13:36:53;5.53;;;4.13;;
8550;SDS011;4313;42.000;21.380;2022-08-20T13:39:21;6.43;;;3.83;;
8550;SDS011;4313;42.000;21.380;2022-08-20T13:41:50;7.75;;;3.95;;
8550;SDS011;4313;42.000;21.380;2022-08-20T13:44:17;6.28;;;4.20;;
8550;SDS011;4313;42.000;21.380;2022-08-20T13:46:44;7.70;;;3.95;;
8550;SDS011;4313;42.000;21.380;2022-08-20T13:49:12;8.80;;;4.85;;
8550;SDS011;4313;42.000;21.380;2022-08-20T13:51:39;6.93;;;5.55;;
8550;SDS011;4313;42.000;21.380;2022-08-20T13:54:06;12.73;;;7.68;;
8550;SDS011;4313;42.000;21.380;2022-08-20T13:56:33;11.00;;;5.68;;
8550;SDS011;4313;42.000;21.380;2022-08-20T13:59:02;7.68;;;4.90;;
8550;SDS011;4313;42.000;21.380;2022-08-20T14:01:31;7.90;;;5.30;;
8550;SDS011;4313;42.000;21.380;2022-08-20T14:03:58;7.10;;;4.70;;
8550;SDS011;4313;42.000;21.380;2022-08-20T14:06:25;7.90;;;5.30;;
8550;SDS011;4313;42.000;21.380;2022-08-20T14:08:52;6.35;;;4.30;;
8550;SDS011;4313;42.000;21.380;2022-08-20T14:11:19;10.40;;;4.28;;
8550;SDS011;4313;42.000;21.380;2022-08-20T14:14:06;7.25;;;4.18;;
8550;SDS011;4313;42.000;21.380;2022-08-20T14:16:37;5.60;;;3.70;;
8550;SDS011;4313;42.000;21.380;2022-08-20T14:19:04;7.05;;;4.15;;
8550;SDS011;4313;42.000;21.380;2022-08-20T14:21:32;6.43;;;4.53;;
8550;SDS011;4313;42.000;21.380;2022-08-20T14:23:59;7.55;;;3.78;;
8550;SDS011;4313;42.000;21.380;2022-08-20T14:26:27;7.45;;;4.28;;
8550;SDS011;4313;42.000;21.380;2022-08-20T14:28:55;6.90;;;4.35;;
8550;SDS011;4313;42.000;21.380;2022-08-20T14:31:24;6.72;;;4.20;;
8550;SDS011;4313;42.000;21.380;2022-08-20T14:33:51;5.13;;;3.83;;
8550;SDS011;4313;42.000;21.380;2022-08-20T14:36:18;6.55;;;3.80;;
8550;SDS011;4313;42.000;21.380;2022-08-20T14:38:46;7.32;;;3.70;;
8550;SDS011;4313;42.000;21.380;2022-08-20T14:41:16;10.32;;;4.97;;
8550;SDS011;4313;42.000;21.380;2022-08-20T14:43:43;8.77;;;4.85;;
8550;SDS011;4313;42.000;21.380;2022-08-20T14:46:10;6.95;;;3.88;;
8550;SDS011;4313;42.000;21.380;2022-08-20T14:48:39;6.38;;;3.80;;
8550;SDS011;4313;42.000;21.380;2022-08-20T14:51:06;4.78;;;3.65;;
8550;SDS011;4313;42.000;21.380;2022-08-20T14:53:34;7.88;;;4.18;;
8550;SDS011;4313;42.000;21.380;2022-08-20T14:56:02;5.60;;;4.13;;
8550;SDS011;4313;42.000;21.380;2022-08-20T14:58:30;7.85;;;5.25;;
8550;SDS011;4313;42.000;21.380;2022-08-20T15:00:57;7.47;;;4.97;;
8550;SDS011;4313;42.000;21.380;2022-08-20T15:03:25;8.68;;;6.22;;
8550;SDS011;4313;42.000;21.380;2022-08-20T15:05:56;7.93;;;6.28;;